Time;durP1;ratioP1;P1;durP2;ratioP2;P2;SDS_P1;SDS_P2;PMS_P1;PMS_P2;Temp;Humidity;BMP_temperature;BMP_pressure;BME280_temperature;BME280_humidity;BME280_pressure;Samples;Min_cycle;Max_cycle;Signal;HPM_P1;HPM_P2
2024/01/29 00:02:16;;;;;;;7.80;3.97;;;;;;;15.40;35.99;102474.75;5050032;28;20392;-78
2024/01/29 00:04:42;;;;;;;7.80;4.53;;;;;;;15.30;36.12;102479.19;5051966;28;20028;-78
2024/01/29 00:07:07;;;;;;;6.50;3.83;;;;;;;15.24;36.18;102481.84;5051912;28;20056;-77
2024/01/29 00:09:33;;;;;;;6.40;4.07;;;;;;;15.14;36.29;102480.13;5051952;28;20127;-77
2024/01/29 00:11:58;;;;;;;7.93;3.87;;;;;;;14.91;36.80;102478.44;5052102;28;20032;-77
2024/01/29 00:14:23;;;;;;;8.90;4.70;;;;;;;15.22;36.73;102486.25;5051791;28;20070;-78
2024/01/29 00:16:49;;;;;;;5.73;4.37;;;;;;;15.27;36.12;102487.09;5052075;28;20473;-77
2024/01/29 00:19:14;;;;;;;8.20;3.93;;;;;;;15.19;36.29;102488.88;5048389;28;20477;-78
2024/01/29 00:21:40;;;;;;;8.50;4.53;;;;;;;15.64;35.78;102491.38;5042902;28;20025;-77
2024/01/29 00:24:05;;;;;;;7.30;4.23;;;;;;;15.36;36.02;102487.09;5052005;28;20499;-79
2024/01/29 00:26:31;;;;;;;6.63;4.60;;;;;;;15.32;36.25;102464.25;5051007;28;20031;-78
2024/01/29 00:28:56;;;;;;;8.17;4.53;;;;;;;14.74;37.10;102479.34;5052380;28;20025;-78
2024/01/29 00:31:22;;;;;;;7.63;3.50;;;;;;;15.25;36.67;102478.34;5052090;28;20067;-77
2024/01/29 00:33:48;;;;;;;5.27;3.53;;;;;;;15.31;36.54;102480.94;5050737;28;20786;-78
2024/01/29 00:36:15;;;;;;;5.53;3.37;;;;;;;15.25;36.80;102486.25;5050820;28;20036;-78
2024/01/29 00:38:40;;;;;;;8.10;4.07;;;;;;;15.65;35.83;102475.53;5051403;28;20465;-78
2024/01/29 00:41:06;;;;;;;12.73;4.67;;;;;;;15.25;36.41;102483.63;5051155;28;20090;-78
2024/01/29 00:43:32;;;;;;;8.33;3.70;;;;;;;14.27;38.31;102485.44;5051527;28;20021;-78
2024/01/29 00:45:57;;;;;;;6.53;3.97;;;;;;;14.98;37.35;102501.22;5051193;28;20103;-78
2024/01/29 00:48:24;;;;;;;8.50;3.63;;;;;;;15.77;35.64;102493.03;5050430;28;20025;-78
2024/01/29 00:50:50;;;;;;;7.67;3.83;;;;;;;15.27;36.35;102498.50;5051012;28;20053;-77
2024/01/29 00:53:16;;;;;;;8.93;3.87;;;;;;;15.62;35.99;102501.91;5051744;28;20404;-78
2024/01/29 00:55:43;;;;;;;9.10;4.30;;;;;;;15.87;35.56;102500.06;5050157;28;20459;-77
2024/01/29 00:58:10;;;;;;;7.47;4.07;;;;;;;15.52;35.69;102492.28;5051598;28;20039;-78
2024/01/29 01:00:35;;;;;;;7.63;4.13;;;;;;;15.46;36.15;102503.72;5051277;28;20116;-77
2024/01/29 01:03:00;;;;;;;8.20;4.37;;;;;;;15.61;35.55;102502.78;5050372;28;20107;-78
2024/01/29 01:05:26;;;;;;;11.47;4.00;;;;;;;15.71;35.73;102499.22;5051883;28;20056;-78
2024/01/29 01:07:51;;;;;;;6.47;3.90;;;;;;;15.19;36.53;102502.94;5050869;28;20017;-77
2024/01/29 01:10:18;;;;;;;8.83;3.53;;;;;;;15.61;35.86;102508.06;5050720;28;20086;-78
2024/01/29 01:12:43;;;;;;;9.17;4.37;;;;;;;15.57;35.75;102507.19;5050929;28;20033;-77
2024/01/29 01:15:08;;;;;;;10.47;4.20;;;;;;;15.38;36.13;102510.78;5047394;28;20392;-78
2024/01/29 01:17:34;;;;;;;8.70;4.30;;;;;;;15.56;35.99;102509.84;5042422;28;20502;-78
2024/01/29 01:19:59;;;;;;;7.27;3.97;;;;;;;15.29;36.25;102508.16;5050775;28;20027;-77
2024/01/29 01:22:25;;;;;;;10.93;4.60;;;;;;;14.99;37.15;102524.06;5050086;28;20025;-77
2024/01/29 01:24:50;;;;;;;8.33;3.83;;;;;;;15.22;36.43;102510.84;5050252;28;20569;-77
2024/01/29 01:27:17;;;;;;;9.47;3.73;;;;;;;14.62;37.26;102518.78;5051057;28;20033;-77
2024/01/29 01:29:44;;;;;;;9.27;4.07;;;;;;;15.04;36.96;102514.41;5051381;28;20032;-77
2024/01/29 01:32:09;;;;;;;7.37;4.00;;;;;;;14.98;36.96;102522.28;5050579;28;20044;-77
2024/01/29 01:34:35;;;;;;;7.57;4.10;;;;;;;14.82;37.56;102510.91;5050515;28;20457;-78
2024/01/29 01:37:00;;;;;;;9.27;4.03;;;;;;;14.64;37.41;102511.78;5049593;28;20560;-78
2024/01/29 01:39:26;;;;;;;7.40;4.37;;;;;;;14.85;36.81;102507.38;5051839;28;20104;-77
2024/01/29 01:41:51;;;;;;;7.10;4.47;;;;;;;14.36;38.00;102511.75;5046560;28;20018;-78
2024/01/29 01:44:16;;;;;;;9.93;4.67;;;;;;;15.07;36.98;102514.38;5045680;28;20029;-77
2024/01/29 01:46:42;;;;;;;6.63;3.93;;;;;;;14.95;36.81;102519.69;5049559;28;20013;-77
2024/01/29 01:49:08;;;;;;;12.37;4.70;;;;;;;14.92;36.88;102511.78;5051535;28;20033;-77
2024/01/29 01:51:34;;;;;;;9.33;4.37;;;;;;;14.74;37.34;102508.28;5049592;28;20503;-77
2024/01/29 01:54:02;;;;;;;6.20;4.53;;;;;;;14.59;37.44;102509.13;5050114;28;20025;-78
2024/01/29 01:56:32;;;;;;;6.07;3.90;;;;;;;14.66;37.48;102504.78;5050319;28;20028;-77
2024/01/29 01:58:59;;;;;;;6.53;4.07;;;;;;;14.82;37.62;102507.41;5049198;28;20025;-77
2024/01/29 02:01:26;;;;;;;9.47;4.10;;;;;;;14.55;37.88;102511.78;5050092;28;20032;-77
2024/01/29 02:03:51;;;;;;;9.37;4.93;;;;;;;14.56;37.81;102509.16;5049836;28;20028;-77
2024/01/29 02:06:17;;;;;;;9.43;4.00;;;;;;;14.35;38.27;102504.72;5049668;28;20029;-77
2024/01/29 02:08:42;;;;;;;9.77;4.30;;;;;;;14.90;37.08;102510.91;5048960;28;20051;-78
2024/01/29 02:11:08;;;;;;;7.27;4.67;;;;;;;14.63;37.72;102512.69;5050034;28;20404;-77
2024/01/29 02:13:33;;;;;;;11.17;4.40;;;;;;;14.45;37.87;102504.75;5050057;28;20139;-77
2024/01/29 02:15:59;;;;;;;7.50;4.13;;;;;;;14.24;38.85;102495.97;5049899;28;20032;-77
2024/01/29 02:18:24;;;;;;;14.00;4.40;;;;;;;13.74;39.34;102501.09;5049765;28;20029;-78
2024/01/29 02:20:50;;;;;;;12.73;5.03;;;;;;;14.15;38.88;102501.19;5050159;28;20039;-78
2024/01/29 02:23:15;;;;;;;11.17;5.03;;;;;;;14.28;38.75;102497.72;5046823;28;20029;-77
2024/01/29 02:25:41;;;;;;;8.17;4.40;;;;;;;13.77;39.81;102489.75;5035379;28;20056;-78
2024/01/29 02:28:06;;;;;;;8.67;4.83;;;;;;;14.03;39.37;102497.69;5041862;28;20067;-77
2024/01/29 02:30:32;;;;;;;12.67;4.50;;;;;;;13.88;39.45;102502.91;5049163;28;20098;-77
2024/01/29 02:32:57;;;;;;;9.43;4.93;;;;;;;13.82;39.64;102503.78;5049212;28;20120;-77
2024/01/29 02:35:22;;;;;;;15.87;4.93;;;;;;;13.76;39.77;102503.75;5050015;28;20029;-78
2024/01/29 02:37:48;;;;;;;11.40;4.80;;;;;;;14.16;38.92;102508.22;5050197;28;20263;-77
2024/01/29 02:40:13;;;;;;;9.77;4.83;;;;;;;14.16;38.97;102513.47;5049275;28;20040;-78
2024/01/29 02:42:40;;;;;;;14.80;5.00;;;;;;;14.56;38.13;102516.16;5048653;28;20036;-77
2024/01/29 02:45:06;;;;;;;13.90;4.73;;;;;;;14.51;38.30;102512.66;5049879;28;20029;-77
2024/01/29 02:47:31;;;;;;;9.80;5.33;;;;;;;14.38;38.58;102503.88;5048795;28;20108;-77
2024/01/29 02:49:56;;;;;;;13.30;5.00;;;;;;;14.63;37.89;102509.16;5049763;28;20504;-77
2024/01/29 02:52:22;;;;;;;11.77;5.10;;;;;;;14.57;38.17;102510.00;5049431;28;20047;-77
2024/01/29 02:54:47;;;;;;;7.87;4.73;;;;;;;14.24;38.49;102517.00;5048610;28;20017;-77
2024/01/29 02:57:13;;;;;;;11.93;4.87;;;;;;;14.50;38.41;102518.78;5049243;28;20028;-78
2024/01/29 02:59:38;;;;;;;8.50;5.17;;;;;;;14.76;37.91;102517.03;5049836;28;20124;-78
2024/01/29 03:02:04;;;;;;;9.73;4.50;;;;;;;14.59;37.80;102516.16;5053051;28;20047;-78
2024/01/29 03:04:29;;;;;;;6.93;4.37;;;;;;;14.71;37.81;102529.34;5054063;28;20036;-76
2024/01/29 03:06:55;;;;;;;11.33;5.47;;;;;;;14.49;38.21;102530.19;5053379;28;20036;-77
2024/01/29 03:09:20;;;;;;;9.27;5.07;;;;;;;14.59;37.84;102529.31;5049530;28;20064;-78
2024/01/29 03:11:46;;;;;;;8.50;4.87;;;;;;;14.79;37.78;102536.38;5066499;28;20025;-78
2024/01/29 03:14:11;;;;;;;12.43;5.30;;;;;;;14.91;38.02;102541.63;5053134;28;20119;-78
2024/01/29 03:16:36;;;;;;;9.70;4.63;;;;;;;14.83;37.74;102538.97;5052375;28;20392;-78
2024/01/29 03:19:02;;;;;;;8.70;4.63;;;;;;;14.86;37.74;102548.63;5053087;28;20021;-79
2024/01/29 03:21:29;;;;;;;7.73;4.53;;;;;;;14.64;37.99;102553.03;5053358;28;20029;-78
2024/01/29 03:23:55;;;;;;;7.80;4.60;;;;;;;14.76;37.20;102553.91;5052508;28;20029;-78
2024/01/29 03:26:21;;;;;;;8.20;4.57;;;;;;;14.55;37.84;102553.88;5053035;28;20037;-77
2024/01/29 03:28:46;;;;;;;8.60;4.87;;;;;;;14.38;38.34;102549.47;5049075;28;20028;-77
2024/01/29 03:31:12;;;;;;;10.13;5.00;;;;;;;14.33;38.58;102543.31;5032698;28;20446;-77
2024/01/29 03:33:37;;;;;;;12.00;5.73;;;;;;;14.30;38.73;102539.81;5053564;28;20033;-77
2024/01/29 03:36:06;;;;;;;8.67;4.47;;;;;;;14.29;38.83;102536.31;5052075;28;20447;-77
2024/01/29 03:38:32;;;;;;;11.63;5.23;;;;;;;14.19;39.27;102542.41;5045615;28;20551;-77
2024/01/29 03:40:59;;;;;;;8.47;5.03;;;;;;;14.45;38.79;102533.69;5033524;28;20060;-78
2024/01/29 03:43:24;;;;;;;8.93;4.40;;;;;;;13.87;39.66;102517.78;5040590;28;20082;-77
2024/01/29 03:45:51;;;;;;;7.37;4.10;;;;;;;13.61;40.56;102504.56;5052270;28;20033;-78
2024/01/29 03:48:17;;;;;;;12.43;5.10;;;;;;;14.63;39.25;102512.69;5052726;28;20479;-78
2024/01/29 03:50:43;;;;;;;8.10;4.70;;;;;;;14.71;38.56;102528.47;5051860;28;20052;-78
2024/01/29 03:53:09;;;;;;;7.10;4.30;;;;;;;14.33;39.18;102527.53;5053134;28;20029;-78
2024/01/29 03:55:34;;;;;;;10.67;5.20;;;;;;;14.64;38.54;102543.38;5052445;28;20025;-77
2024/01/29 03:58:00;;;;;;;8.40;4.90;;;;;;;14.60;38.37;102541.56;5051809;28;20136;-77
2024/01/29 04:00:26;;;;;;;7.43;4.57;;;;;;;14.86;38.54;102538.09;5052520;28;20029;-78
2024/01/29 04:02:52;;;;;;;8.67;4.83;;;;;;;14.64;38.34;102538.09;5052055;28;20063;-78
2024/01/29 04:05:18;;;;;;;10.40;5.17;;;;;;;14.80;37.88;102538.13;5051801;28;20029;-78
2024/01/29 04:07:47;;;;;;;8.40;4.90;;;;;;;14.26;38.88;102536.31;5052091;28;20127;-78
2024/01/29 04:10:12;;;;;;;8.60;4.97;;;;;;;14.42;38.40;102526.66;5052501;28;20051;-78
2024/01/29 04:12:37;;;;;;;7.53;4.50;;;;;;;14.59;38.59;102532.81;5049505;28;20025;-78
2024/01/29 04:15:04;;;;;;;11.37;5.40;;;;;;;14.16;38.96;102529.25;5052500;28;20056;-77
2024/01/29 04:17:29;;;;;;;10.63;5.10;;;;;;;14.42;38.96;102537.19;5051143;28;20036;-77
2024/01/29 04:19:55;;;;;;;10.83;4.27;;;;;;;14.66;38.43;102530.22;5051765;28;20534;-77
2024/01/29 04:22:20;;;;;;;10.00;5.20;;;;;;;14.04;39.26;102520.47;5052332;28;20032;-78
2024/01/29 04:24:46;;;;;;;7.83;4.57;;;;;;;14.49;39.04;102538.06;5051686;28;20032;-78
2024/01/29 04:27:11;;;;;;;12.63;5.33;;;;;;;14.48;38.93;102525.78;5050859;28;20481;-78
2024/01/29 04:29:38;;;;;;;9.07;4.87;;;;;;;14.41;39.21;102525.78;5051656;28;20489;-77
2024/01/29 04:32:04;;;;;;;9.53;4.43;;;;;;;14.65;38.92;102524.06;5052092;28;20060;-78
2024/01/29 04:34:29;;;;;;;12.23;5.30;;;;;;;14.83;38.01;102517.06;5051191;28;20064;-77
2024/01/29 04:36:54;;;;;;;8.73;5.27;;;;;;;14.53;38.62;102516.16;5051855;28;20546;-77
2024/01/29 04:39:20;;;;;;;8.07;5.00;;;;;;;14.33;39.41;102526.66;5051573;28;20028;-78
2024/01/29 04:41:45;;;;;;;8.00;4.93;;;;;;;14.15;39.62;102517.88;5050694;28;20378;-77
2024/01/29 04:44:11;;;;;;;17.00;6.60;;;;;;;14.27;39.33;102522.25;5051702;28;20121;-78
2024/01/29 04:46:36;;;;;;;8.30;5.10;;;;;;;13.98;39.96;102520.44;5050697;28;20146;-77
2024/01/29 04:49:02;;;;;;;10.57;5.07;;;;;;;13.99;39.83;102522.22;5047977;28;20068;-77
2024/01/29 04:51:27;;;;;;;8.93;5.33;;;;;;;13.44;40.71;102527.28;5031886;28;20477;-77
2024/01/29 04:53:53;;;;;;;9.43;5.00;;;;;;;14.01;39.97;102515.22;5046855;28;20482;-77
2024/01/29 04:56:18;;;;;;;9.80;5.40;;;;;;;13.33;41.18;102528.03;5051944;28;20040;-78
2024/01/29 04:58:44;;;;;;;10.77;5.00;;;;;;;14.40;39.35;102524.03;5053121;28;20110;-77
2024/01/29 05:01:10;;;;;;;12.80;5.53;;;;;;;14.27;39.48;102519.63;5051029;28;20029;-78
2024/01/29 05:03:36;;;;;;;12.17;5.37;;;;;;;14.04;40.11;102525.75;5050902;28;20491;-78
2024/01/29 05:06:02;;;;;;;8.03;4.97;;;;;;;14.58;39.25;102536.31;5051457;28;20039;-78
2024/01/29 05:08:27;;;;;;;9.47;5.30;;;;;;;13.99;40.22;102540.63;5050862;28;20109;-78
2024/01/29 05:10:52;;;;;;;12.67;5.53;;;;;;;14.36;39.54;102510.88;5050765;28;20129;-78
2024/01/29 05:13:18;;;;;;;12.20;6.50;;;;;;;13.99;40.42;102521.34;5051094;28;20070;-77
2024/01/29 05:15:43;;;;;;;10.53;6.13;;;;;;;13.82;41.06;102513.38;5050495;28;20410;-78
2024/01/29 05:18:09;;;;;;;16.57;5.97;;;;;;;13.65;41.23;102521.22;5051411;28;20408;-77
2024/01/29 05:20:34;;;;;;;11.20;6.53;;;;;;;14.07;40.65;102520.47;5050198;28;20074;-78
2024/01/29 05:23:00;;;;;;;13.17;6.10;;;;;;;14.13;40.52;102516.13;5049562;28;20029;-76
2024/01/29 05:25:25;;;;;;;13.57;5.93;;;;;;;13.72;41.07;102513.38;5051010;28;20035;-77
2024/01/29 05:27:50;;;;;;;9.93;5.03;;;;;;;13.92;40.79;102528.34;5050425;28;20025;-77
2024/01/29 05:30:16;;;;;;;11.03;5.70;;;;;;;14.40;39.84;102516.16;5050505;28;20130;-77
2024/01/29 05:32:42;;;;;;;9.70;5.80;;;;;;;14.22;40.02;102526.66;5047112;28;20032;-77
2024/01/29 05:35:08;;;;;;;7.67;5.23;;;;;;;14.59;39.12;102535.44;5059450;28;20083;-77
2024/01/29 05:37:34;;;;;;;9.97;5.63;;;;;;;14.60;39.23;102541.56;5029962;28;20032;-77
2024/01/29 05:40:04;;;;;;;11.87;5.63;;;;;;;14.28;40.11;102539.81;5040217;28;20033;-77
2024/01/29 05:42:30;;;;;;;8.10;4.93;;;;;;;14.76;39.07;102545.13;5046946;28;20028;-77
2024/01/29 05:44:55;;;;;;;12.43;5.27;;;;;;;14.91;38.57;102560.91;5046633;28;20037;-77
2024/01/29 05:47:21;;;;;;;10.13;4.77;;;;;;;14.71;38.66;102555.69;5030693;28;20432;-77
2024/01/29 05:49:46;;;;;;;7.80;4.67;;;;;;;14.67;38.71;102556.56;5039840;28;20072;-77
2024/01/29 05:52:11;;;;;;;12.27;5.33;;;;;;;14.79;38.77;102546.88;5049447;28;20029;-77
2024/01/29 05:54:37;;;;;;;7.57;4.57;;;;;;;14.62;38.91;102550.38;5049292;28;20087;-77
2024/01/29 05:57:02;;;;;;;9.47;4.60;;;;;;;14.64;39.43;102559.16;5049464;28;20083;-77
2024/01/29 05:59:31;;;;;;;10.43;5.37;;;;;;;14.46;39.51;102561.75;5049719;28;20029;-76
2024/01/29 06:01:57;;;;;;;11.37;5.07;;;;;;;15.03;38.13;102561.78;5049933;28;20435;-77
2024/01/29 06:04:22;;;;;;;9.33;4.77;;;;;;;14.68;39.30;102554.78;5048814;28;20036;-77
2024/01/29 06:06:47;;;;;;;10.00;5.50;;;;;;;14.49;39.87;102569.66;5049271;28;20037;-77
2024/01/29 06:09:13;;;;;;;11.77;5.10;;;;;;;14.39;40.05;102558.22;5049168;28;20029;-77
2024/01/29 06:11:38;;;;;;;9.67;4.57;;;;;;;14.44;40.61;102551.25;5048395;28;20119;-77
2024/01/29 06:14:04;;;;;;;9.43;4.60;;;;;;;14.28;40.63;102550.31;5049012;28;20124;-77
2024/01/29 06:16:29;;;;;;;10.50;5.63;;;;;;;14.19;41.04;102556.44;5048925;28;20119;-77
2024/01/29 06:18:55;;;;;;;12.27;6.17;;;;;;;14.54;40.54;102558.25;5048671;28;20032;-77
2024/01/29 06:21:24;;;;;;;12.97;5.07;;;;;;;14.50;40.48;102553.00;5049188;28;20033;-78
2024/01/29 06:23:49;;;;;;;8.27;5.20;;;;;;;14.74;40.08;102545.13;5048211;28;20037;-76
2024/01/29 06:26:15;;;;;;;9.90;5.30;;;;;;;14.64;40.32;102548.63;5048227;28;20029;-77
2024/01/29 06:28:44;;;;;;;9.00;5.10;;;;;;;14.70;40.18;102553.91;5049025;28;20488;-77
2024/01/29 06:31:10;;;;;;;9.77;5.40;;;;;;;14.42;40.69;102558.22;5045592;28;20531;-76
2024/01/29 06:33:36;;;;;;;9.83;6.03;;;;;;;14.80;39.71;102564.44;5030466;28;20020;-76
2024/01/29 06:36:08;;;;;;;7.63;5.07;;;;;;;14.87;39.94;102555.66;5050430;28;20025;-76
2024/01/29 06:38:33;;;;;;;15.75;5.55;;;;;;;14.95;39.69;102553.00;5048217;28;20065;-77
2024/01/29 06:40:59;;;;;;;11.07;5.17;;;;;;;14.73;39.89;102558.31;5047133;28;20052;-77
2024/01/29 06:43:26;;;;;;;8.33;4.87;;;;;;;14.71;39.92;102560.03;5047803;28;20028;-77
2024/01/29 06:45:51;;;;;;;8.83;4.57;;;;;;;14.69;39.91;102565.31;5047903;28;20024;-77
2024/01/29 06:48:16;;;;;;;9.57;5.57;;;;;;;14.65;40.02;102570.59;5048410;28;20021;-77
2024/01/29 06:50:42;;;;;;;13.83;5.70;;;;;;;14.79;39.56;102578.47;4991160;28;1251096;-77
2024/01/29 06:53:07;;;;;;;10.20;5.87;;;;;;;14.12;40.84;102559.06;5026894;28;20124;-77
2024/01/29 06:55:32;;;;;;;9.00;4.90;;;;;;;14.03;40.92;102566.03;5042171;28;20480;-78
2024/01/29 06:57:58;;;;;;;9.93;4.97;;;;;;;14.22;40.55;102566.09;5049494;28;20641;-77
2024/01/29 07:00:23;;;;;;;14.57;5.50;;;;;;;14.28;40.65;102568.72;5048320;28;20086;-77
2024/01/29 07:02:49;;;;;;;11.00;5.60;;;;;;;14.23;40.58;102578.34;5048623;28;20025;-77
2024/01/29 07:05:16;;;;;;;11.23;5.60;;;;;;;14.32;40.61;102573.13;5047774;28;20078;-77
2024/01/29 07:07:41;;;;;;;12.73;5.50;;;;;;;14.33;40.76;102582.78;5048480;28;20120;-76
2024/01/29 07:10:07;;;;;;;10.83;5.90;;;;;;;14.15;41.01;102582.72;5049418;28;20111;-77
2024/01/29 07:12:32;;;;;;;11.37;6.10;;;;;;;14.52;40.85;102582.78;5048906;28;20032;-77
2024/01/29 07:14:58;;;;;;;12.43;5.40;;;;;;;14.24;41.12;102590.63;5047811;28;20451;-77
2024/01/29 07:17:23;;;;;;;9.13;5.57;;;;;;;14.45;40.86;102591.56;5048916;28;20580;-77
2024/01/29 07:19:51;;;;;;;13.07;6.57;;;;;;;14.20;41.33;102588.88;5047767;28;20083;-77
2024/01/29 07:22:21;;;;;;;16.97;7.40;;;;;;;14.59;40.78;102595.13;5048012;28;20021;-77
2024/01/29 07:24:48;;;;;;;14.83;7.43;;;;;;;14.55;40.35;102598.63;5050048;28;20048;-77
2024/01/29 07:27:14;;;;;;;15.63;7.10;;;;;;;14.46;40.93;102591.56;5049587;28;20119;-77
2024/01/29 07:29:39;;;;;;;10.83;5.80;;;;;;;14.41;41.16;102586.31;5042878;28;20117;-77
2024/01/29 07:32:05;;;;;;;13.13;5.60;;;;;;;14.22;41.54;102590.63;5045011;28;20112;-76
2024/01/29 07:34:30;;;;;;;10.30;5.23;;;;;;;14.16;42.02;102587.13;5048275;28;20025;-77
2024/01/29 07:36:56;;;;;;;11.23;5.57;;;;;;;13.85;42.61;102597.53;5048504;28;20028;-77
2024/01/29 07:39:21;;;;;;;14.10;5.93;;;;;;;14.07;42.58;102603.75;5047258;28;20437;-77
2024/01/29 07:41:47;;;;;;;15.83;6.10;;;;;;;14.55;41.39;102609.13;5046031;28;20052;-77
2024/01/29 07:44:12;;;;;;;10.53;5.77;;;;;;;14.28;41.47;102608.19;5045167;28;20091;-77
2024/01/29 07:46:37;;;;;;;10.77;6.07;;;;;;;14.24;41.58;102604.66;5046410;28;20070;-77
2024/01/29 07:49:03;;;;;;;12.97;6.40;;;;;;;14.56;41.12;102614.41;5054181;28;20471;-76
2024/01/29 07:51:29;;;;;;;14.80;6.67;;;;;;;14.53;41.24;102613.50;5051177;28;20060;-77
2024/01/29 07:53:55;;;;;;;13.10;6.67;;;;;;;14.94;40.56;102615.31;5052519;28;20037;-77
2024/01/29 07:56:20;;;;;;;13.17;6.17;;;;;;;14.95;40.52;102613.56;5048236;28;20128;-77
2024/01/29 07:58:45;;;;;;;16.77;6.63;;;;;;;14.71;40.54;102618.84;5032467;28;20017;-77
2024/01/29 08:01:11;;;;;;;11.90;6.53;;;;;;;14.56;41.54;102614.41;5041697;28;20595;-78
2024/01/29 08:03:37;;;;;;;12.70;5.77;;;;;;;14.81;41.27;102616.19;5051400;28;20118;-77
2024/01/29 08:06:03;;;;;;;12.20;6.67;;;;;;;15.31;39.99;102625.84;5051537;28;20481;-78
2024/01/29 08:08:29;;;;;;;9.10;5.97;;;;;;;15.40;39.90;102620.56;5051938;28;20115;-77
2024/01/29 08:10:58;;;;;;;9.70;5.67;;;;;;;15.39;39.73;102629.34;5048004;28;20115;-77
2024/01/29 08:13:24;;;;;;;10.83;5.80;;;;;;;15.32;39.59;102627.59;5051400;28;20032;-77
2024/01/29 08:15:50;;;;;;;8.97;5.73;;;;;;;15.19;40.14;102620.59;5051127;28;20025;-77
2024/01/29 08:18:16;;;;;;;11.77;6.43;;;;;;;15.62;39.45;102628.44;5051175;28;20493;-77
2024/01/29 08:20:41;;;;;;;10.53;5.37;;;;;;;15.09;40.24;102625.84;5051937;28;20376;-77
2024/01/29 08:23:07;;;;;;;9.40;5.13;;;;;;;15.55;39.73;102624.03;5052049;28;20029;-76
2024/01/29 08:25:32;;;;;;;11.47;5.70;;;;;;;15.47;39.72;102641.63;5050882;28;20021;-77
2024/01/29 08:27:57;;;;;;;15.17;6.50;;;;;;;15.44;40.18;102632.84;5051919;28;20044;-77
2024/01/29 08:30:23;;;;;;;9.43;4.90;;;;;;;15.47;39.65;102631.06;5048090;28;20144;-77
2024/01/29 08:32:48;;;;;;;15.23;6.53;;;;;;;15.64;39.71;102631.06;5049044;28;20025;-77
2024/01/29 08:35:14;;;;;;;11.77;6.10;;;;;;;15.67;39.76;102628.41;5051715;28;20098;-77
2024/01/29 08:37:41;;;;;;;9.77;5.07;;;;;;;15.28;40.50;102631.13;5052562;28;20025;-77
2024/01/29 08:40:07;;;;;;;11.60;5.70;;;;;;;15.38;40.58;102632.84;5051156;28;20567;-77
2024/01/29 08:42:32;;;;;;;13.03;6.20;;;;;;;15.67;40.13;102624.00;5051195;28;20142;-76
2024/01/29 08:44:58;;;;;;;10.80;6.37;;;;;;;14.93;41.05;102629.38;5051491;28;20400;-77
2024/01/29 08:47:23;;;;;;;11.47;6.37;;;;;;;15.68;40.66;102620.50;5051674;28;20060;-76
2024/01/29 08:49:50;;;;;;;9.27;4.97;;;;;;;15.44;41.14;102627.59;5051261;28;20114;-77
2024/01/29 08:52:15;;;;;;;11.50;6.27;;;;;;;15.02;41.97;102629.38;5050650;28;20087;-76
2024/01/29 08:54:41;;;;;;;13.30;5.87;;;;;;;14.81;42.37;102618.81;5049166;28;20095;-77
2024/01/29 08:57:06;;;;;;;11.97;6.47;;;;;;;14.93;42.86;102621.47;5050462;28;20538;-77
2024/01/29 08:59:32;;;;;;;10.43;5.57;;;;;;;15.22;42.04;102633.75;5052026;28;20031;-77
2024/01/29 09:01:57;;;;;;;11.80;6.90;;;;;;;15.47;41.28;102631.06;5050321;28;20504;-78
2024/01/29 09:04:23;;;;;;;12.67;6.40;;;;;;;15.39;41.28;102628.47;5050997;28;20078;-76
2024/01/29 09:06:49;;;;;;;11.10;5.63;;;;;;;15.52;41.51;102634.59;5047131;28;20335;-77
2024/01/29 09:09:14;;;;;;;11.90;6.07;;;;;;;14.99;42.26;102626.75;5062533;28;20037;-77
2024/01/29 09:11:39;;;;;;;13.40;6.07;;;;;;;15.41;41.87;102631.97;5037406;28;20033;-77
2024/01/29 09:14:05;;;;;;;12.07;6.30;;;;;;;15.00;43.18;102625.88;5050689;28;20021;-77
2024/01/29 09:16:32;;;;;;;9.77;5.77;;;;;;;15.37;41.41;102625.84;5049876;28;20013;-78
2024/01/29 09:18:58;;;;;;;12.47;7.43;;;;;;;15.41;41.83;102627.59;5049964;28;20032;-78
2024/01/29 09:21:24;;;;;;;12.03;6.20;;;;;;;15.43;42.31;102631.09;5050369;28;20527;-77
2024/01/29 09:23:50;;;;;;;14.50;7.57;;;;;;;16.32;40.41;102633.44;5049846;28;20108;-77
2024/01/29 09:26:15;;;;;;;11.33;7.07;;;;;;;15.53;42.03;102641.63;5050058;28;20380;-77
2024/01/29 09:28:41;;;;;;;12.63;6.07;;;;;;;16.16;40.89;102637.94;5049908;28;20024;-77
2024/01/29 09:31:07;;;;;;;15.37;6.50;;;;;;;16.23;40.27;102650.22;5050722;28;20082;-77
2024/01/29 09:33:32;;;;;;;15.93;7.63;;;;;;;16.43;40.76;102648.34;5050483;28;20028;-78
2024/01/29 09:35:58;;;;;;;12.27;6.70;;;;;;;16.17;41.41;102645.84;5051332;28;20021;-77
2024/01/29 09:38:23;;;;;;;16.77;6.73;;;;;;;16.14;41.40;102650.25;5047061;28;20029;-77
2024/01/29 09:40:49;;;;;;;11.13;6.27;;;;;;;15.95;41.78;102660.88;5031647;28;20049;-77
2024/01/29 09:43:17;;;;;;;10.83;5.87;;;;;;;16.15;41.29;102659.91;5047696;28;20431;-77
2024/01/29 09:45:43;;;;;;;14.80;7.70;;;;;;;16.37;40.83;102658.91;5050299;28;20021;-77
2024/01/29 09:48:14;;;;;;;12.73;6.33;;;;;;;15.88;42.10;102670.56;5051421;28;20029;-77
2024/01/29 09:50:41;;;;;;;15.20;6.90;;;;;;;16.38;41.12;102658.03;5049151;28;20045;-77
2024/01/29 09:53:07;;;;;;;12.97;7.10;;;;;;;17.39;39.70;102658.22;5050209;28;20036;-77
2024/01/29 09:55:33;;;;;;;12.73;6.83;;;;;;;16.96;40.10;102663.84;5050262;28;20020;-77
2024/01/29 09:57:58;;;;;;;11.33;6.40;;;;;;;17.39;39.68;102663.50;5049195;28;20036;-77
2024/01/29 10:00:23;;;;;;;14.90;7.07;;;;;;;16.51;42.02;102656.19;5050066;28;20056;-77
2024/01/29 10:02:53;;;;;;;14.93;7.83;;;;;;;16.71;41.21;102658.72;5049746;28;20068;-78
2024/01/29 10:05:19;;;;;;;12.00;6.57;;;;;;;16.56;42.55;102664.09;5049940;28;20056;-77
2024/01/29 10:07:45;;;;;;;13.03;6.33;;;;;;;16.17;42.70;102660.78;5045838;28;20052;-78
2024/01/29 10:10:11;;;;;;;13.07;7.17;;;;;;;16.60;42.18;102665.84;5038189;28;20017;-77
2024/01/29 10:12:36;;;;;;;13.00;6.97;;;;;;;17.62;40.19;102670.31;5049665;28;20035;-79
2024/01/29 10:15:03;;;;;;;13.57;6.97;;;;;;;17.18;41.85;102669.84;5050144;28;20014;-77
2024/01/29 10:17:32;;;;;;;16.77;7.00;;;;;;;18.93;38.50;102671.31;5048985;28;20025;-78
2024/01/29 10:19:58;;;;;;;15.20;7.57;;;;;;;19.63;37.58;102667.44;5051307;28;20507;-77
2024/01/29 10:22:27;;;;;;;15.00;7.90;;;;;;;18.82;38.41;102676.75;5047617;28;20068;-77
2024/01/29 10:25:03;;;;;;;13.03;7.00;;;;;;;18.39;38.72;102677.34;5048830;28;20025;-77
2024/01/29 10:27:29;;;;;;;11.67;6.10;;;;;;;19.12;37.84;102679.84;5048917;28;20079;-78
2024/01/29 10:29:55;;;;;;;11.80;6.10;;;;;;;18.18;39.31;102681.16;5049594;28;20083;-79
2024/01/29 10:32:21;;;;;;;11.53;5.90;;;;;;;18.28;39.41;102687.22;5049382;28;20496;-78
2024/01/29 10:34:46;;;;;;;11.83;6.83;;;;;;;19.46;37.53;102689.84;5050440;28;20100;-77
2024/01/29 10:37:14;;;;;;;12.93;7.03;;;;;;;20.51;36.14;102684.22;5049862;28;20025;-77
2024/01/29 10:39:41;;;;;;;14.47;7.17;;;;;;;18.81;38.50;102697.97;5048617;28;20029;-77
2024/01/29 10:42:09;;;;;;;13.60;6.97;;;;;;;18.92;38.67;102696.03;5049064;28;20464;-77
2024/01/29 10:44:37;;;;;;;13.10;6.17;;;;;;;18.88;38.33;102694.34;5048294;28;20033;-77
2024/01/29 10:47:08;;;;;;;12.87;6.20;;;;;;;19.94;37.38;102704.03;5045672;28;20122;-77
2024/01/29 10:49:35;;;;;;;12.03;6.60;;;;;;;19.48;37.50;102695.09;5029259;28;20056;-77
2024/01/29 10:52:02;;;;;;;11.80;6.47;;;;;;;19.76;37.60;102689.31;5048937;28;20619;-77
2024/01/29 10:54:29;;;;;;;15.93;6.97;;;;;;;19.29;37.51;102689.28;5048980;28;20047;-77
2024/01/29 10:56:55;;;;;;;17.87;6.17;;;;;;;19.97;37.27;102683.59;5049573;28;20037;-77
2024/01/29 10:59:22;;;;;;;16.13;6.70;;;;;;;19.92;37.02;102695.19;5048259;28;20017;-77
2024/01/29 11:01:49;;;;;;;13.73;6.20;;;;;;;19.41;37.69;102682.88;5045452;28;20021;-78
2024/01/29 11:04:19;;;;;;;14.67;6.70;;;;;;;18.87;38.96;102681.09;5048763;28;20587;-77
2024/01/29 11:06:56;;;;;;;12.60;7.17;;;;;;;20.13;36.58;102673.53;5045225;28;20497;-78
2024/01/29 11:09:24;;;;;;;15.97;6.80;;;;;;;19.14;38.41;102688.63;5048933;28;20031;-77
2024/01/29 11:11:51;;;;;;;14.10;7.10;;;;;;;19.80;37.60;102678.63;5049019;28;20182;-77
2024/01/29 11:14:19;;;;;;;11.63;6.40;;;;;;;20.23;36.63;102676.00;5045368;28;20030;-77
2024/01/29 11:16:45;;;;;;;14.90;6.63;;;;;;;20.30;36.27;102664.34;5048142;28;20025;-77